Aberdeen, Washington
Current Conditions -  °F | °C
As of 2:53 AM on Wednesday 26 Nov 2014 (Local Time) from KHQM Reporting Station
Haze Haze  
Wind Chill: 54°   Ceiling: 700
Heat Index: 54°   Visibility: 3mi
Dew Point: 54°   Wind: 17mph
Humidity: 100%   Direction: 180°S
Pressure: 30.19"   Gusts: NA
Location:  46.98°N, 123.81°W
Report Text: KHQM 261053Z AUTO 18015KT 3SM BR OVC007 12/12 A3019 RMK AO2 RAE21 CIG 004V010 SLP226 P0001 T01220122
Loading
Personal Weather Stations






























Interactive Weather Map New forecast layout! Learn more

10-Day Weather Forecast

Advertisements
Track Severe Weather on mobile